Alt de Fairview, Puerto Rico
Current Conditions -  °F | °C
As of 1:56 AM on Monday 24 Nov 2014 (Local Time) from TJSJ Reporting Station
Few Clouds Few Clouds  
Wind Chill: 79°   Ceiling: Unl
Heat Index: 82°   Visibility: 10mi
Dew Point: 74°   Wind: 10mph
Humidity: 84%   Direction: 80°E
Pressure: 29.99"   Gusts: NA
Location:  18.3569°N, 66.0247°W
Report Text: TJSJ 240556Z 08009KT 10SM FEW055 26/23 A2999 RMK AO2 SLP153 T02610233 10272 20261 58009 $
Loading
Personal Weather Stations






























Interactive Weather Map New forecast layout! Learn more

10-Day Weather Forecast

Advertisements
Track Severe Weather on mobile